Pagrindinis puslapis
METAR-TAF:

METAR-TAF

Oro uostai :

Damaskas, Sirija

platuma: 33-25N, ilguma: 036-31E, Aukštis: 608 m

Dabartinis oras

Ataskaita buvo paskelbta 2 valandos ir 4 minutes, ne 01:00 UTC
Vėjas 10 kt iš Pietvakarių
Temperatūra 15°C
Drėgmė 72%
Slėgis 1015 hPa
Matomumas 10 km arba daugiau
nėra debesų žemiau 1500 m ir nėra kamuolinių lietaus debesų

METAR: OSDI 170100Z 22010KT CAVOK 15/10 Q1015

Laikas: 06:04 (03:04 UTC)

Prognozė

Ataskaita buvo paskelbta 5 valandos ir 4 minutes, ne 22:00 UTC
Prognozė galioja nuo 17 metu 00 UTC su 18 metu 06 UTC
Vėjas 15 kt iš Pietų/Pietvakarių
Matomumas 10 km arba daugiau
nėra debesų žemiau 1500 m ir nėra kamuolinių lietaus debesų
Laikinai
nuo 17 metu 10 UTC su 17 metu 18 UTC
Vėjas 15 kt iš Vakarų su gūsio iki 25 kt
Matomumas: 8000 m
Mažai debesys ne aukštis 3000 ft

TAF: OSDI 162200Z 1700/1806 20015KT CAVOK TEMPO 1710/1718 26015G25KT 8000 FEW030

Orai ataskaitas ir orų prognozės (METAR, TAF).

turimą stotys yra geltonos ir raudonos taškus žemėlapyje.

Perkelti pele per norėdami pamatyti stoties vardą.

Tada spustelėkite, norėdami matyti oro stebėjimo ir prognozės.

Norėdami pakeisti žemėlapį: spustelėkite ant žalios mygtukų su juodo kryžiaus žemyn,; žalią mygtuką su brūkšneliu, jei norite nutolinti; arba žalių rodyklių gretimoms žemėlapius.


METAR-TAF: